sensor_id;sensor_type;location;lat;lon;timestamp;P1;durP1;ratioP1;P2;durP2;ratioP2
17261;SDS011;9873;52.236;21.002;2022-07-25T00:07:11;5.28;;;4.45;;
17261;SDS011;9873;52.236;21.002;2022-07-25T00:17:13;6.45;;;4.55;;
17261;SDS011;9873;52.236;21.002;2022-07-25T00:27:18;5.38;;;4.47;;
17261;SDS011;9873;52.236;21.002;2022-07-25T00:37:20;8.02;;;4.57;;
17261;SDS011;9873;52.236;21.002;2022-07-25T00:47:30;6.00;;;4.93;;
17261;SDS011;9873;52.236;21.002;2022-07-25T00:57:34;5.32;;;4.05;;
17261;SDS011;9873;52.236;21.002;2022-07-25T01:07:41;4.32;;;3.92;;
17261;SDS011;9873;52.236;21.002;2022-07-25T01:17:43;5.18;;;4.18;;
17261;SDS011;9873;52.236;21.002;2022-07-25T01:27:46;5.35;;;3.97;;
17261;SDS011;9873;52.236;21.002;2022-07-25T01:37:58;5.57;;;4.50;;
17261;SDS011;9873;52.236;21.002;2022-07-25T01:48:02;4.45;;;4.05;;
17261;SDS011;9873;52.236;21.002;2022-07-25T01:58:06;5.63;;;4.30;;
17261;SDS011;9873;52.236;21.002;2022-07-25T02:08:14;5.30;;;3.38;;
17261;SDS011;9873;52.236;21.002;2022-07-25T02:18:17;4.95;;;3.33;;
17261;SDS011;9873;52.236;21.002;2022-07-25T02:28:22;3.60;;;3.10;;
17261;SDS011;9873;52.236;21.002;2022-07-25T02:38:24;3.88;;;3.40;;
17261;SDS011;9873;52.236;21.002;2022-07-25T02:48:27;5.90;;;3.60;;
17261;SDS011;9873;52.236;21.002;2022-07-25T02:58:29;7.22;;;4.22;;
17261;SDS011;9873;52.236;21.002;2022-07-25T03:08:42;7.75;;;3.22;;
17261;SDS011;9873;52.236;21.002;2022-07-25T03:18:49;3.40;;;2.95;;
17261;SDS011;9873;52.236;21.002;2022-07-25T03:28:52;3.95;;;2.63;;
17261;SDS011;9873;52.236;21.002;2022-07-25T03:38:59;7.65;;;3.63;;
17261;SDS011;9873;52.236;21.002;2022-07-25T03:49:06;3.25;;;2.92;;
17261;SDS011;9873;52.236;21.002;2022-07-25T03:59:10;4.70;;;3.30;;
17261;SDS011;9873;52.236;21.002;2022-07-25T04:09:14;3.22;;;2.72;;
17261;SDS011;9873;52.236;21.002;2022-07-25T04:19:16;3.72;;;3.03;;
17261;SDS011;9873;52.236;21.002;2022-07-25T04:29:20;4.00;;;2.97;;
17261;SDS011;9873;52.236;21.002;2022-07-25T04:39:30;3.83;;;3.40;;
17261;SDS011;9873;52.236;21.002;2022-07-25T04:49:33;5.32;;;3.28;;
17261;SDS011;9873;52.236;21.002;2022-07-25T04:59:38;4.65;;;3.15;;
17261;SDS011;9873;52.236;21.002;2022-07-25T05:09:48;8.65;;;3.53;;
17261;SDS011;9873;52.236;21.002;2022-07-25T05:19:53;2.88;;;2.58;;
17261;SDS011;9873;52.236;21.002;2022-07-25T05:29:57;2.60;;;2.40;;
17261;SDS011;9873;52.236;21.002;2022-07-25T05:39:59;4.47;;;2.80;;
17261;SDS011;9873;52.236;21.002;2022-07-25T05:50:04;3.03;;;2.72;;
17261;SDS011;9873;52.236;21.002;2022-07-25T06:00:13;3.20;;;2.45;;
17261;SDS011;9873;52.236;21.002;2022-07-25T06:10:17;5.18;;;2.95;;
17261;SDS011;9873;52.236;21.002;2022-07-25T06:20:20;2.50;;;2.30;;
17261;SDS011;9873;52.236;21.002;2022-07-25T06:30:22;3.85;;;2.75;;
17261;SDS011;9873;52.236;21.002;2022-07-25T06:40:24;6.05;;;3.00;;
17261;SDS011;9873;52.236;21.002;2022-07-25T06:50:31;5.00;;;2.58;;
17261;SDS011;9873;52.236;21.002;2022-07-25T07:00:39;2.88;;;2.53;;
17261;SDS011;9873;52.236;21.002;2022-07-25T07:10:45;3.45;;;2.75;;
17261;SDS011;9873;52.236;21.002;2022-07-25T07:20:49;2.80;;;2.60;;
17261;SDS011;9873;52.236;21.002;2022-07-25T07:30:56;2.90;;;2.53;;
17261;SDS011;9873;52.236;21.002;2022-07-25T07:41:16;2.85;;;2.40;;
17261;SDS011;9873;52.236;21.002;2022-07-25T07:51:21;4.45;;;2.40;;
17261;SDS011;9873;52.236;21.002;2022-07-25T08:01:27;3.00;;;2.40;;
17261;SDS011;9873;52.236;21.002;2022-07-25T08:11:30;5.10;;;2.50;;
17261;SDS011;9873;52.236;21.002;2022-07-25T08:21:34;2.28;;;2.08;;
17261;SDS011;9873;52.236;21.002;2022-07-25T08:31:36;2.85;;;2.53;;
17261;SDS011;9873;52.236;21.002;2022-07-25T08:41:42;2.88;;;2.42;;
17261;SDS011;9873;52.236;21.002;2022-07-25T08:51:44;4.22;;;2.40;;
17261;SDS011;9873;52.236;21.002;2022-07-25T09:01:51;3.90;;;2.28;;
17261;SDS011;9873;52.236;21.002;2022-07-25T09:11:53;2.95;;;2.28;;
17261;SDS011;9873;52.236;21.002;2022-07-25T09:21:56;3.00;;;2.70;;
17261;SDS011;9873;52.236;21.002;2022-07-25T09:42:25;2.85;;;2.33;;
17261;SDS011;9873;52.236;21.002;2022-07-25T09:52:33;3.55;;;3.20;;
17261;SDS011;9873;52.236;21.002;2022-07-25T10:02:40;4.60;;;2.45;;
17261;SDS011;9873;52.236;21.002;2022-07-25T10:13:06;1.88;;;1.77;;
17261;SDS011;9873;52.236;21.002;2022-07-25T10:23:18;3.55;;;2.60;;
17261;SDS011;9873;52.236;21.002;2022-07-25T10:33:39;4.95;;;2.85;;
17261;SDS011;9873;52.236;21.002;2022-07-25T10:43:44;3.10;;;2.65;;
17261;SDS011;9873;52.236;21.002;2022-07-25T10:53:49;4.18;;;2.60;;
17261;SDS011;9873;52.236;21.002;2022-07-25T11:03:55;2.97;;;2.45;;
17261;SDS011;9873;52.236;21.002;2022-07-25T11:14:13;4.15;;;2.63;;
17261;SDS011;9873;52.236;21.002;2022-07-25T11:24:16;3.15;;;2.70;;
17261;SDS011;9873;52.236;21.002;2022-07-25T11:34:21;3.03;;;2.53;;
17261;SDS011;9873;52.236;21.002;2022-07-25T11:44:34;2.85;;;2.50;;
17261;SDS011;9873;52.236;21.002;2022-07-25T11:54:48;2.78;;;2.58;;
17261;SDS011;9873;52.236;21.002;2022-07-25T12:04:59;2.90;;;2.45;;
17261;SDS011;9873;52.236;21.002;2022-07-25T12:15:03;3.92;;;2.78;;
17261;SDS011;9873;52.236;21.002;2022-07-25T12:25:05;2.92;;;2.63;;
17261;SDS011;9873;52.236;21.002;2022-07-25T12:35:11;3.85;;;2.35;;
17261;SDS011;9873;52.236;21.002;2022-07-25T12:45:16;2.42;;;2.22;;
17261;SDS011;9873;52.236;21.002;2022-07-25T12:55:18;2.58;;;2.13;;
17261;SDS011;9873;52.236;21.002;2022-07-25T13:05:23;3.00;;;2.20;;
17261;SDS011;9873;52.236;21.002;2022-07-25T13:15:26;2.95;;;2.63;;
17261;SDS011;9873;52.236;21.002;2022-07-25T13:25:33;2.88;;;2.40;;
17261;SDS011;9873;52.236;21.002;2022-07-25T13:35:38;2.60;;;2.40;;
17261;SDS011;9873;52.236;21.002;2022-07-25T13:45:40;3.38;;;2.72;;
17261;SDS011;9873;52.236;21.002;2022-07-25T13:55:45;3.08;;;2.30;;
17261;SDS011;9873;52.236;21.002;2022-07-25T14:05:48;3.00;;;2.55;;
17261;SDS011;9873;52.236;21.002;2022-07-25T14:15:52;2.88;;;2.20;;
17261;SDS011;9873;52.236;21.002;2022-07-25T14:25:59;2.13;;;1.85;;
17261;SDS011;9873;52.236;21.002;2022-07-25T14:36:06;2.67;;;2.13;;
17261;SDS011;9873;52.236;21.002;2022-07-25T14:46:11;3.63;;;2.88;;
17261;SDS011;9873;52.236;21.002;2022-07-25T14:56:13;3.13;;;2.72;;
17261;SDS011;9873;52.236;21.002;2022-07-25T15:06:16;3.15;;;2.42;;
17261;SDS011;9873;52.236;21.002;2022-07-25T15:16:19;2.22;;;2.03;;
17261;SDS011;9873;52.236;21.002;2022-07-25T15:26:21;2.80;;;2.20;;
17261;SDS011;9873;52.236;21.002;2022-07-25T15:36:25;2.53;;;2.33;;
17261;SDS011;9873;52.236;21.002;2022-07-25T15:46:30;2.78;;;2.45;;
17261;SDS011;9873;52.236;21.002;2022-07-25T15:56:33;2.53;;;2.25;;
17261;SDS011;9873;52.236;21.002;2022-07-25T16:06:38;4.38;;;2.35;;
17261;SDS011;9873;52.236;21.002;2022-07-25T16:16:45;2.30;;;2.10;;
17261;SDS011;9873;52.236;21.002;2022-07-25T16:26:47;2.58;;;2.00;;
17261;SDS011;9873;52.236;21.002;2022-07-25T16:36:52;3.03;;;2.00;;
17261;SDS011;9873;52.236;21.002;2022-07-25T16:46:57;2.78;;;2.22;;
17261;SDS011;9873;52.236;21.002;2022-07-25T16:56:59;4.05;;;2.33;;
17261;SDS011;9873;52.236;21.002;2022-07-25T17:07:03;2.17;;;1.98;;
17261;SDS011;9873;52.236;21.002;2022-07-25T17:17:08;3.97;;;2.10;;
17261;SDS011;9873;52.236;21.002;2022-07-25T17:27:10;2.45;;;2.25;;
17261;SDS011;9873;52.236;21.002;2022-07-25T17:37:12;3.17;;;2.38;;
17261;SDS011;9873;52.236;21.002;2022-07-25T17:47:17;2.65;;;2.08;;
17261;SDS011;9873;52.236;21.002;2022-07-25T17:57:20;3.83;;;2.15;;
17261;SDS011;9873;52.236;21.002;2022-07-25T18:07:26;3.05;;;2.13;;
17261;SDS011;9873;52.236;21.002;2022-07-25T18:17:28;3.90;;;1.98;;
17261;SDS011;9873;52.236;21.002;2022-07-25T18:27:33;2.90;;;1.95;;
17261;SDS011;9873;52.236;21.002;2022-07-25T18:37:35;3.30;;;1.98;;
17261;SDS011;9873;52.236;21.002;2022-07-25T18:47:38;3.22;;;2.25;;
17261;SDS011;9873;52.236;21.002;2022-07-25T18:57:40;5.13;;;2.15;;
17261;SDS011;9873;52.236;21.002;2022-07-25T19:07:43;4.47;;;2.25;;
17261;SDS011;9873;52.236;21.002;2022-07-25T19:17:48;2.42;;;1.60;;
17261;SDS011;9873;52.236;21.002;2022-07-25T19:27:52;7.18;;;2.80;;
17261;SDS011;9873;52.236;21.002;2022-07-25T19:37:54;3.47;;;2.95;;
17261;SDS011;9873;52.236;21.002;2022-07-25T19:47:57;3.38;;;2.83;;
17261;SDS011;9873;52.236;21.002;2022-07-25T19:58:00;3.97;;;2.72;;
17261;SDS011;9873;52.236;21.002;2022-07-25T20:08:06;3.60;;;3.00;;
17261;SDS011;9873;52.236;21.002;2022-07-25T20:18:11;5.20;;;3.50;;
17261;SDS011;9873;52.236;21.002;2022-07-25T20:28:21;8.18;;;3.85;;
17261;SDS011;9873;52.236;21.002;2022-07-25T20:38:23;4.72;;;3.33;;
17261;SDS011;9873;52.236;21.002;2022-07-25T20:48:33;4.35;;;3.70;;
17261;SDS011;9873;52.236;21.002;2022-07-25T20:58:35;6.68;;;4.10;;
17261;SDS011;9873;52.236;21.002;2022-07-25T21:08:37;6.00;;;4.32;;
17261;SDS011;9873;52.236;21.002;2022-07-25T21:18:43;5.80;;;4.10;;
17261;SDS011;9873;52.236;21.002;2022-07-25T21:28:45;7.80;;;5.00;;
17261;SDS011;9873;52.236;21.002;2022-07-25T21:38:47;4.75;;;4.22;;
17261;SDS011;9873;52.236;21.002;2022-07-25T21:48:56;7.88;;;5.00;;
17261;SDS011;9873;52.236;21.002;2022-07-25T21:59:41;8.23;;;4.68;;
17261;SDS011;9873;52.236;21.002;2022-07-25T22:09:44;7.05;;;4.40;;
17261;SDS011;9873;52.236;21.002;2022-07-25T22:19:47;5.63;;;4.68;;
17261;SDS011;9873;52.236;21.002;2022-07-25T22:29:50;6.93;;;5.13;;
17261;SDS011;9873;52.236;21.002;2022-07-25T22:39:52;6.13;;;4.57;;
17261;SDS011;9873;52.236;21.002;2022-07-25T22:50:02;6.93;;;4.35;;
17261;SDS011;9873;52.236;21.002;2022-07-25T23:00:06;8.07;;;5.30;;
17261;SDS011;9873;52.236;21.002;2022-07-25T23:10:12;5.20;;;4.57;;
17261;SDS011;9873;52.236;21.002;2022-07-25T23:20:15;11.52;;;6.30;;
17261;SDS011;9873;52.236;21.002;2022-07-25T23:30:19;9.90;;;6.90;;
17261;SDS011;9873;52.236;21.002;2022-07-25T23:40:29;9.40;;;7.55;;
17261;SDS011;9873;52.236;21.002;2022-07-25T23:50:32;8.57;;;7.47;;
